sensor_id;sensor_type;location;lat;lon;timestamp;P1;durP1;ratioP1;P2;durP2;ratioP2
29202;SDS011;16245;51.170;4.884;2023-02-28T00:01:22;16.20;;;8.05;;
29202;SDS011;16245;51.170;4.884;2023-02-28T00:03:48;14.05;;;6.82;;
29202;SDS011;16245;51.170;4.884;2023-02-28T00:06:14;12.50;;;7.85;;
29202;SDS011;16245;51.170;4.884;2023-02-28T00:08:40;18.02;;;7.78;;
29202;SDS011;16245;51.170;4.884;2023-02-28T00:11:07;11.73;;;7.70;;
29202;SDS011;16245;51.170;4.884;2023-02-28T00:13:35;11.52;;;7.32;;
29202;SDS011;16245;51.170;4.884;2023-02-28T00:16:08;11.18;;;7.20;;
29202;SDS011;16245;51.170;4.884;2023-02-28T00:18:36;10.25;;;7.13;;
29202;SDS011;16245;51.170;4.884;2023-02-28T00:21:02;8.75;;;6.30;;
29202;SDS011;16245;51.170;4.884;2023-02-28T00:23:28;10.10;;;6.18;;
29202;SDS011;16245;51.170;4.884;2023-02-28T00:25:54;9.25;;;6.18;;
29202;SDS011;16245;51.170;4.884;2023-02-28T00:28:20;8.23;;;6.47;;
29202;SDS011;16245;51.170;4.884;2023-02-28T00:30:46;7.70;;;6.28;;
29202;SDS011;16245;51.170;4.884;2023-02-28T00:33:12;12.35;;;6.90;;
29202;SDS011;16245;51.170;4.884;2023-02-28T00:35:38;13.20;;;6.75;;
29202;SDS011;16245;51.170;4.884;2023-02-28T00:38:03;7.25;;;6.13;;
29202;SDS011;16245;51.170;4.884;2023-02-28T00:40:29;13.23;;;6.22;;
29202;SDS011;16245;51.170;4.884;2023-02-28T00:42:55;10.43;;;6.55;;
29202;SDS011;16245;51.170;4.884;2023-02-28T00:45:21;7.88;;;5.70;;
29202;SDS011;16245;51.170;4.884;2023-02-28T00:47:47;8.68;;;6.10;;
29202;SDS011;16245;51.170;4.884;2023-02-28T00:50:16;9.55;;;6.28;;
29202;SDS011;16245;51.170;4.884;2023-02-28T00:52:43;8.02;;;5.32;;
29202;SDS011;16245;51.170;4.884;2023-02-28T00:55:08;7.68;;;6.13;;
29202;SDS011;16245;51.170;4.884;2023-02-28T00:57:34;9.48;;;6.50;;
29202;SDS011;16245;51.170;4.884;2023-02-28T01:00:00;9.45;;;5.85;;
29202;SDS011;16245;51.170;4.884;2023-02-28T01:02:26;7.22;;;5.93;;
29202;SDS011;16245;51.170;4.884;2023-02-28T01:04:52;10.30;;;6.63;;
29202;SDS011;16245;51.170;4.884;2023-02-28T01:07:18;9.07;;;6.32;;
29202;SDS011;16245;51.170;4.884;2023-02-28T01:09:44;8.23;;;6.45;;
29202;SDS011;16245;51.170;4.884;2023-02-28T01:12:09;8.52;;;6.82;;
29202;SDS011;16245;51.170;4.884;2023-02-28T01:14:35;8.70;;;5.80;;
29202;SDS011;16245;51.170;4.884;2023-02-28T01:17:01;12.27;;;6.97;;
29202;SDS011;16245;51.170;4.884;2023-02-28T01:19:27;7.50;;;6.07;;
29202;SDS011;16245;51.170;4.884;2023-02-28T01:21:52;7.60;;;5.75;;
29202;SDS011;16245;51.170;4.884;2023-02-28T01:24:18;7.90;;;5.57;;
29202;SDS011;16245;51.170;4.884;2023-02-28T01:26:44;8.00;;;5.70;;
29202;SDS011;16245;51.170;4.884;2023-02-28T01:29:10;7.57;;;6.22;;
29202;SDS011;16245;51.170;4.884;2023-02-28T01:31:35;9.00;;;6.28;;
29202;SDS011;16245;51.170;4.884;2023-02-28T01:34:01;10.13;;;6.70;;
29202;SDS011;16245;51.170;4.884;2023-02-28T01:36:27;8.65;;;6.63;;
29202;SDS011;16245;51.170;4.884;2023-02-28T01:38:54;8.45;;;6.88;;
29202;SDS011;16245;51.170;4.884;2023-02-28T01:41:21;13.20;;;7.45;;
29202;SDS011;16245;51.170;4.884;2023-02-28T01:46:13;8.52;;;6.57;;
29202;SDS011;16245;51.170;4.884;2023-02-28T01:48:44;10.23;;;7.65;;
29202;SDS011;16245;51.170;4.884;2023-02-28T01:51:26;9.13;;;7.07;;
29202;SDS011;16245;51.170;4.884;2023-02-28T01:54:29;12.10;;;8.75;;
29202;SDS011;16245;51.170;4.884;2023-02-28T01:56:58;9.38;;;8.07;;
29202;SDS011;16245;51.170;4.884;2023-02-28T02:02:25;11.43;;;8.23;;
29202;SDS011;16245;51.170;4.884;2023-02-28T02:05:00;13.90;;;8.05;;
29202;SDS011;16245;51.170;4.884;2023-02-28T02:07:31;10.90;;;8.57;;
29202;SDS011;16245;51.170;4.884;2023-02-28T02:10:05;10.10;;;8.05;;
29202;SDS011;16245;51.170;4.884;2023-02-28T02:21:07;13.38;;;8.38;;
29202;SDS011;16245;51.170;4.884;2023-02-28T02:29:24;14.00;;;8.48;;
29202;SDS011;16245;51.170;4.884;2023-02-28T02:34:50;11.30;;;8.98;;
29202;SDS011;16245;51.170;4.884;2023-02-28T02:37:22;13.30;;;8.25;;
29202;SDS011;16245;51.170;4.884;2023-02-28T02:40:30;10.45;;;8.18;;
29202;SDS011;16245;51.170;4.884;2023-02-28T02:43:02;18.38;;;8.45;;
29202;SDS011;16245;51.170;4.884;2023-02-28T02:48:14;14.52;;;9.10;;
29202;SDS011;16245;51.170;4.884;2023-02-28T02:50:44;12.15;;;8.57;;
29202;SDS011;16245;51.170;4.884;2023-02-28T02:53:14;9.68;;;7.72;;
29202;SDS011;16245;51.170;4.884;2023-02-28T02:55:43;13.30;;;9.25;;
29202;SDS011;16245;51.170;4.884;2023-02-28T02:58:13;9.68;;;7.40;;
29202;SDS011;16245;51.170;4.884;2023-02-28T03:00:43;12.75;;;7.90;;
29202;SDS011;16245;51.170;4.884;2023-02-28T03:03:12;11.73;;;7.85;;
29202;SDS011;16245;51.170;4.884;2023-02-28T03:05:42;11.07;;;8.02;;
29202;SDS011;16245;51.170;4.884;2023-02-28T03:08:11;9.27;;;7.90;;
29202;SDS011;16245;51.170;4.884;2023-02-28T03:10:38;14.25;;;8.13;;
29202;SDS011;16245;51.170;4.884;2023-02-28T03:24:11;10.35;;;7.85;;
29202;SDS011;16245;51.170;4.884;2023-02-28T03:26:50;12.48;;;8.18;;
29202;SDS011;16245;51.170;4.884;2023-02-28T03:29:27;13.30;;;8.35;;
29202;SDS011;16245;51.170;4.884;2023-02-28T03:32:05;14.75;;;8.85;;
29202;SDS011;16245;51.170;4.884;2023-02-28T03:34:42;12.93;;;7.43;;
29202;SDS011;16245;51.170;4.884;2023-02-28T03:37:16;14.27;;;7.55;;
29202;SDS011;16245;51.170;4.884;2023-02-28T03:39:48;11.93;;;7.68;;
29202;SDS011;16245;51.170;4.884;2023-02-28T03:42:20;13.80;;;8.18;;
29202;SDS011;16245;51.170;4.884;2023-02-28T03:44:58;11.57;;;8.00;;
29202;SDS011;16245;51.170;4.884;2023-02-28T03:50:02;12.77;;;8.82;;
29202;SDS011;16245;51.170;4.884;2023-02-28T03:52:36;10.63;;;7.53;;
29202;SDS011;16245;51.170;4.884;2023-02-28T03:55:07;14.20;;;8.93;;
29202;SDS011;16245;51.170;4.884;2023-02-28T03:58:11;10.73;;;7.88;;
29202;SDS011;16245;51.170;4.884;2023-02-28T04:00:31;11.32;;;8.55;;
29202;SDS011;16245;51.170;4.884;2023-02-28T04:03:03;13.80;;;9.57;;
29202;SDS011;16245;51.170;4.884;2023-02-28T04:05:29;11.55;;;8.35;;
29202;SDS011;16245;51.170;4.884;2023-02-28T04:08:06;11.57;;;8.30;;
29202;SDS011;16245;51.170;4.884;2023-02-28T04:10:32;12.35;;;7.57;;
29202;SDS011;16245;51.170;4.884;2023-02-28T04:12:58;11.43;;;7.70;;
29202;SDS011;16245;51.170;4.884;2023-02-28T04:15:24;10.60;;;7.50;;
29202;SDS011;16245;51.170;4.884;2023-02-28T04:17:50;9.88;;;6.88;;
29202;SDS011;16245;51.170;4.884;2023-02-28T04:20:15;10.18;;;7.03;;
29202;SDS011;16245;51.170;4.884;2023-02-28T04:22:41;9.73;;;7.13;;
29202;SDS011;16245;51.170;4.884;2023-02-28T04:25:07;10.10;;;7.30;;
29202;SDS011;16245;51.170;4.884;2023-02-28T04:27:33;16.83;;;8.05;;
29202;SDS011;16245;51.170;4.884;2023-02-28T04:29:59;15.07;;;8.63;;
29202;SDS011;16245;51.170;4.884;2023-02-28T04:32:24;9.77;;;8.35;;
29202;SDS011;16245;51.170;4.884;2023-02-28T04:34:50;13.18;;;8.10;;
29202;SDS011;16245;51.170;4.884;2023-02-28T04:37:16;11.52;;;7.75;;
29202;SDS011;16245;51.170;4.884;2023-02-28T04:39:42;11.32;;;8.25;;
29202;SDS011;16245;51.170;4.884;2023-02-28T04:42:08;14.70;;;8.48;;
29202;SDS011;16245;51.170;4.884;2023-02-28T04:44:33;13.07;;;8.90;;
29202;SDS011;16245;51.170;4.884;2023-02-28T04:46:59;17.20;;;9.07;;
29202;SDS011;16245;51.170;4.884;2023-02-28T04:49:25;11.63;;;7.72;;
29202;SDS011;16245;51.170;4.884;2023-02-28T04:51:51;14.75;;;9.05;;
29202;SDS011;16245;51.170;4.884;2023-02-28T04:54:17;9.88;;;7.72;;
29202;SDS011;16245;51.170;4.884;2023-02-28T04:56:43;10.68;;;7.88;;
29202;SDS011;16245;51.170;4.884;2023-02-28T04:59:09;9.88;;;7.47;;
29202;SDS011;16245;51.170;4.884;2023-02-28T05:01:35;10.40;;;7.80;;
29202;SDS011;16245;51.170;4.884;2023-02-28T05:04:01;10.70;;;7.40;;
29202;SDS011;16245;51.170;4.884;2023-02-28T05:06:29;9.40;;;7.55;;
29202;SDS011;16245;51.170;4.884;2023-02-28T05:08:57;10.38;;;6.95;;
29202;SDS011;16245;51.170;4.884;2023-02-28T05:11:24;8.45;;;7.18;;
29202;SDS011;16245;51.170;4.884;2023-02-28T05:13:59;10.18;;;7.45;;
29202;SDS011;16245;51.170;4.884;2023-02-28T05:16:26;14.85;;;8.07;;
29202;SDS011;16245;51.170;4.884;2023-02-28T05:18:51;11.93;;;7.22;;
29202;SDS011;16245;51.170;4.884;2023-02-28T05:21:26;10.25;;;7.60;;
29202;SDS011;16245;51.170;4.884;2023-02-28T05:23:52;9.52;;;7.40;;
29202;SDS011;16245;51.170;4.884;2023-02-28T05:26:19;11.73;;;7.97;;
29202;SDS011;16245;51.170;4.884;2023-02-28T05:28:45;8.98;;;7.75;;
29202;SDS011;16245;51.170;4.884;2023-02-28T05:31:11;9.07;;;6.97;;
29202;SDS011;16245;51.170;4.884;2023-02-28T05:33:37;8.77;;;7.07;;
29202;SDS011;16245;51.170;4.884;2023-02-28T05:36:02;13.90;;;8.32;;
29202;SDS011;16245;51.170;4.884;2023-02-28T05:38:29;12.35;;;7.80;;
29202;SDS011;16245;51.170;4.884;2023-02-28T05:40:54;12.85;;;8.25;;
29202;SDS011;16245;51.170;4.884;2023-02-28T05:43:21;15.13;;;7.38;;
29202;SDS011;16245;51.170;4.884;2023-02-28T05:45:46;8.63;;;7.55;;
29202;SDS011;16245;51.170;4.884;2023-02-28T05:48:12;12.20;;;7.80;;
29202;SDS011;16245;51.170;4.884;2023-02-28T05:50:38;11.45;;;8.15;;
29202;SDS011;16245;51.170;4.884;2023-02-28T05:53:03;10.32;;;7.50;;
29202;SDS011;16245;51.170;4.884;2023-02-28T05:55:29;12.13;;;8.07;;
29202;SDS011;16245;51.170;4.884;2023-02-28T05:57:55;14.93;;;8.30;;
29202;SDS011;16245;51.170;4.884;2023-02-28T06:00:21;12.23;;;7.97;;
29202;SDS011;16245;51.170;4.884;2023-02-28T06:02:47;11.65;;;8.10;;
29202;SDS011;16245;51.170;4.884;2023-02-28T06:05:14;12.02;;;7.82;;
29202;SDS011;16245;51.170;4.884;2023-02-28T06:07:41;12.48;;;7.53;;
29202;SDS011;16245;51.170;4.884;2023-02-28T06:10:08;14.40;;;8.13;;
29202;SDS011;16245;51.170;4.884;2023-02-28T06:12:38;11.27;;;8.63;;
29202;SDS011;16245;51.170;4.884;2023-02-28T06:15:06;12.90;;;7.75;;
29202;SDS011;16245;51.170;4.884;2023-02-28T06:17:32;10.32;;;7.85;;
29202;SDS011;16245;51.170;4.884;2023-02-28T06:19:58;13.55;;;8.10;;
29202;SDS011;16245;51.170;4.884;2023-02-28T06:22:24;9.07;;;7.45;;
29202;SDS011;16245;51.170;4.884;2023-02-28T06:24:50;15.02;;;8.05;;
29202;SDS011;16245;51.170;4.884;2023-02-28T06:27:15;11.77;;;7.28;;
29202;SDS011;16245;51.170;4.884;2023-02-28T06:29:41;11.32;;;8.00;;
29202;SDS011;16245;51.170;4.884;2023-02-28T06:32:07;14.50;;;8.35;;
29202;SDS011;16245;51.170;4.884;2023-02-28T06:34:32;12.68;;;8.35;;
29202;SDS011;16245;51.170;4.884;2023-02-28T06:37:01;15.05;;;8.45;;
29202;SDS011;16245;51.170;4.884;2023-02-28T06:39:30;16.73;;;8.95;;
29202;SDS011;16245;51.170;4.884;2023-02-28T06:41:56;11.18;;;7.85;;
29202;SDS011;16245;51.170;4.884;2023-02-28T06:44:22;12.00;;;8.80;;
29202;SDS011;16245;51.170;4.884;2023-02-28T06:46:49;14.45;;;8.93;;
29202;SDS011;16245;51.170;4.884;2023-02-28T06:49:14;12.00;;;8.50;;
29202;SDS011;16245;51.170;4.884;2023-02-28T06:51:41;10.25;;;7.57;;
29202;SDS011;16245;51.170;4.884;2023-02-28T06:54:10;11.00;;;7.90;;
29202;SDS011;16245;51.170;4.884;2023-02-28T06:56:36;10.75;;;8.77;;
29202;SDS011;16245;51.170;4.884;2023-02-28T06:59:03;10.77;;;8.13;;
29202;SDS011;16245;51.170;4.884;2023-02-28T07:01:29;11.82;;;9.15;;
29202;SDS011;16245;51.170;4.884;2023-02-28T07:03:57;13.30;;;8.90;;
29202;SDS011;16245;51.170;4.884;2023-02-28T07:06:23;10.98;;;7.82;;
29202;SDS011;16245;51.170;4.884;2023-02-28T07:08:49;11.93;;;8.10;;
29202;SDS011;16245;51.170;4.884;2023-02-28T07:11:17;10.10;;;7.47;;
29202;SDS011;16245;51.170;4.884;2023-02-28T07:13:43;12.02;;;8.15;;
29202;SDS011;16245;51.170;4.884;2023-02-28T07:16:09;13.77;;;7.72;;
29202;SDS011;16245;51.170;4.884;2023-02-28T07:18:36;12.05;;;7.50;;
29202;SDS011;16245;51.170;4.884;2023-02-28T07:21:06;9.13;;;7.18;;
29202;SDS011;16245;51.170;4.884;2023-02-28T07:23:33;9.45;;;7.03;;
29202;SDS011;16245;51.170;4.884;2023-02-28T07:25:59;9.20;;;7.47;;
29202;SDS011;16245;51.170;4.884;2023-02-28T07:28:25;11.40;;;6.57;;
29202;SDS011;16245;51.170;4.884;2023-02-28T07:30:51;8.70;;;7.03;;
29202;SDS011;16245;51.170;4.884;2023-02-28T07:33:16;11.45;;;7.10;;
29202;SDS011;16245;51.170;4.884;2023-02-28T07:35:42;11.52;;;7.80;;
29202;SDS011;16245;51.170;4.884;2023-02-28T07:38:08;13.75;;;8.15;;
29202;SDS011;16245;51.170;4.884;2023-02-28T07:40:35;11.23;;;6.63;;
29202;SDS011;16245;51.170;4.884;2023-02-28T07:43:01;6.60;;;5.75;;
29202;SDS011;16245;51.170;4.884;2023-02-28T07:45:27;11.88;;;5.78;;
29202;SDS011;16245;51.170;4.884;2023-02-28T07:47:54;8.90;;;5.25;;
29202;SDS011;16245;51.170;4.884;2023-02-28T07:50:20;9.30;;;5.10;;
29202;SDS011;16245;51.170;4.884;2023-02-28T07:52:46;8.95;;;4.50;;
29202;SDS011;16245;51.170;4.884;2023-02-28T07:55:13;8.07;;;4.88;;
29202;SDS011;16245;51.170;4.884;2023-02-28T07:57:39;6.90;;;4.88;;
29202;SDS011;16245;51.170;4.884;2023-02-28T08:00:06;5.95;;;4.53;;
29202;SDS011;16245;51.170;4.884;2023-02-28T08:02:35;7.28;;;4.30;;
29202;SDS011;16245;51.170;4.884;2023-02-28T08:05:01;5.47;;;4.57;;
29202;SDS011;16245;51.170;4.884;2023-02-28T08:07:26;6.28;;;4.13;;
29202;SDS011;16245;51.170;4.884;2023-02-28T08:09:52;6.50;;;4.07;;
29202;SDS011;16245;51.170;4.884;2023-02-28T08:12:18;5.55;;;3.75;;
29202;SDS011;16245;51.170;4.884;2023-02-28T08:14:44;7.53;;;4.25;;
29202;SDS011;16245;51.170;4.884;2023-02-28T08:17:10;6.70;;;3.83;;
29202;SDS011;16245;51.170;4.884;2023-02-28T08:19:36;5.90;;;3.65;;
29202;SDS011;16245;51.170;4.884;2023-02-28T08:22:02;5.47;;;3.40;;
29202;SDS011;16245;51.170;4.884;2023-02-28T08:24:27;4.03;;;3.20;;
29202;SDS011;16245;51.170;4.884;2023-02-28T08:26:54;3.40;;;3.10;;
29202;SDS011;16245;51.170;4.884;2023-02-28T08:29:20;6.03;;;3.28;;
29202;SDS011;16245;51.170;4.884;2023-02-28T08:31:45;4.57;;;3.20;;
29202;SDS011;16245;51.170;4.884;2023-02-28T08:34:12;3.40;;;3.10;;
29202;SDS011;16245;51.170;4.884;2023-02-28T08:36:39;3.17;;;2.90;;
29202;SDS011;16245;51.170;4.884;2023-02-28T08:39:07;4.57;;;3.03;;
29202;SDS011;16245;51.170;4.884;2023-02-28T08:41:33;3.83;;;3.22;;
29202;SDS011;16245;51.170;4.884;2023-02-28T08:43:59;5.30;;;3.53;;
29202;SDS011;16245;51.170;4.884;2023-02-28T08:46:25;3.40;;;2.47;;
29202;SDS011;16245;51.170;4.884;2023-02-28T08:48:51;5.65;;;3.35;;
29202;SDS011;16245;51.170;4.884;2023-02-28T08:51:19;3.00;;;2.75;;
29202;SDS011;16245;51.170;4.884;2023-02-28T08:54:00;2.55;;;2.35;;
29202;SDS011;16245;51.170;4.884;2023-02-28T08:56:26;2.63;;;2.30;;
29202;SDS011;16245;51.170;4.884;2023-02-28T08:58:54;2.33;;;1.95;;
29202;SDS011;16245;51.170;4.884;2023-02-28T09:01:25;4.00;;;2.25;;
29202;SDS011;16245;51.170;4.884;2023-02-28T09:03:52;4.90;;;2.55;;
29202;SDS011;16245;51.170;4.884;2023-02-28T09:06:19;4.40;;;2.40;;
29202;SDS011;16245;51.170;4.884;2023-02-28T09:08:46;4.25;;;2.50;;
29202;SDS011;16245;51.170;4.884;2023-02-28T09:11:13;3.17;;;2.45;;
29202;SDS011;16245;51.170;4.884;2023-02-28T09:13:39;5.63;;;2.13;;
29202;SDS011;16245;51.170;4.884;2023-02-28T09:16:05;2.78;;;2.10;;
29202;SDS011;16245;51.170;4.884;2023-02-28T09:18:36;3.83;;;2.38;;
29202;SDS011;16245;51.170;4.884;2023-02-28T09:21:06;3.42;;;2.35;;
29202;SDS011;16245;51.170;4.884;2023-02-28T09:23:34;2.00;;;1.80;;
29202;SDS011;16245;51.170;4.884;2023-02-28T09:26:03;2.38;;;2.00;;
29202;SDS011;16245;51.170;4.884;2023-02-28T09:28:29;2.33;;;2.13;;
29202;SDS011;16245;51.170;4.884;2023-02-28T09:30:54;4.47;;;2.45;;
29202;SDS011;16245;51.170;4.884;2023-02-28T09:33:22;3.05;;;2.17;;
29202;SDS011;16245;51.170;4.884;2023-02-28T09:35:48;3.20;;;2.40;;
29202;SDS011;16245;51.170;4.884;2023-02-28T09:38:14;3.00;;;2.08;;
29202;SDS011;16245;51.170;4.884;2023-02-28T09:41:00;2.58;;;2.05;;
29202;SDS011;16245;51.170;4.884;2023-02-28T09:43:33;2.22;;;1.80;;
29202;SDS011;16245;51.170;4.884;2023-02-28T09:46:06;4.85;;;1.95;;
29202;SDS011;16245;51.170;4.884;2023-02-28T09:48:46;2.40;;;1.75;;
29202;SDS011;16245;51.170;4.884;2023-02-28T09:51:16;3.00;;;1.80;;
29202;SDS011;16245;51.170;4.884;2023-02-28T09:53:52;2.25;;;1.67;;
29202;SDS011;16245;51.170;4.884;2023-02-28T09:56:26;4.10;;;2.20;;
29202;SDS011;16245;51.170;4.884;2023-02-28T10:06:54;2.70;;;1.58;;
29202;SDS011;16245;51.170;4.884;2023-02-28T10:09:24;1.85;;;1.75;;
29202;SDS011;16245;51.170;4.884;2023-02-28T10:12:00;4.13;;;1.50;;
29202;SDS011;16245;51.170;4.884;2023-02-28T10:14:29;3.28;;;2.00;;
29202;SDS011;16245;51.170;4.884;2023-02-28T10:16:59;2.75;;;1.50;;
29202;SDS011;16245;51.170;4.884;2023-02-28T10:24:48;2.72;;;1.77;;
29202;SDS011;16245;51.170;4.884;2023-02-28T10:27:19;3.42;;;1.88;;
29202;SDS011;16245;51.170;4.884;2023-02-28T10:29:54;5.75;;;1.85;;
29202;SDS011;16245;51.170;4.884;2023-02-28T10:32:29;1.90;;;1.52;;
29202;SDS011;16245;51.170;4.884;2023-02-28T10:37:40;1.98;;;1.58;;
29202;SDS011;16245;51.170;4.884;2023-02-28T10:40:27;2.88;;;1.80;;
29202;SDS011;16245;51.170;4.884;2023-02-28T10:43:21;3.35;;;1.70;;
29202;SDS011;16245;51.170;4.884;2023-02-28T10:45:53;1.98;;;1.63;;
29202;SDS011;16245;51.170;4.884;2023-02-28T10:48:32;1.70;;;1.60;;
29202;SDS011;16245;51.170;4.884;2023-02-28T10:50:59;1.70;;;1.45;;
29202;SDS011;16245;51.170;4.884;2023-02-28T10:53:39;3.72;;;1.80;;
29202;SDS011;16245;51.170;4.884;2023-02-28T10:56:17;2.33;;;2.10;;
29202;SDS011;16245;51.170;4.884;2023-02-28T11:01:15;2.35;;;1.67;;
29202;SDS011;16245;51.170;4.884;2023-02-28T11:03:47;2.35;;;1.85;;
29202;SDS011;16245;51.170;4.884;2023-02-28T11:06:15;2.28;;;1.83;;
29202;SDS011;16245;51.170;4.884;2023-02-28T11:08:48;2.78;;;2.17;;
29202;SDS011;16245;51.170;4.884;2023-02-28T11:11:20;2.78;;;1.98;;
29202;SDS011;16245;51.170;4.884;2023-02-28T11:13:48;2.55;;;2.13;;
29202;SDS011;16245;51.170;4.884;2023-02-28T11:16:17;2.25;;;2.05;;
29202;SDS011;16245;51.170;4.884;2023-02-28T11:18:51;2.38;;;1.98;;
29202;SDS011;16245;51.170;4.884;2023-02-28T11:21:23;2.80;;;1.67;;
29202;SDS011;16245;51.170;4.884;2023-02-28T11:24:01;3.60;;;2.30;;
29202;SDS011;16245;51.170;4.884;2023-02-28T11:26:46;2.70;;;2.20;;
29202;SDS011;16245;51.170;4.884;2023-02-28T11:32:02;2.72;;;2.10;;
29202;SDS011;16245;51.170;4.884;2023-02-28T11:34:29;2.85;;;2.30;;
29202;SDS011;16245;51.170;4.884;2023-02-28T11:36:55;3.03;;;1.75;;
29202;SDS011;16245;51.170;4.884;2023-02-28T11:39:22;2.47;;;2.25;;
29202;SDS011;16245;51.170;4.884;2023-02-28T11:47:23;3.30;;;2.58;;
29202;SDS011;16245;51.170;4.884;2023-02-28T11:52:53;4.63;;;2.35;;
29202;SDS011;16245;51.170;4.884;2023-02-28T12:05:44;2.33;;;2.13;;
29202;SDS011;16245;51.170;4.884;2023-02-28T12:14:06;5.32;;;2.40;;
29202;SDS011;16245;51.170;4.884;2023-02-28T12:16:49;2.38;;;1.65;;
29202;SDS011;16245;51.170;4.884;2023-02-28T12:19:22;4.35;;;2.03;;
29202;SDS011;16245;51.170;4.884;2023-02-28T12:22:10;3.38;;;2.20;;
29202;SDS011;16245;51.170;4.884;2023-02-28T12:25:17;3.10;;;2.10;;
29202;SDS011;16245;51.170;4.884;2023-02-28T12:27:46;2.70;;;2.20;;
29202;SDS011;16245;51.170;4.884;2023-02-28T12:30:22;3.15;;;2.17;;
29202;SDS011;16245;51.170;4.884;2023-02-28T12:33:26;4.80;;;1.95;;
29202;SDS011;16245;51.170;4.884;2023-02-28T12:39:23;2.28;;;1.83;;
29202;SDS011;16245;51.170;4.884;2023-02-28T12:44:06;4.93;;;2.10;;
29202;SDS011;16245;51.170;4.884;2023-02-28T12:46:43;3.65;;;2.35;;
29202;SDS011;16245;51.170;4.884;2023-02-28T12:49:16;4.20;;;2.60;;
29202;SDS011;16245;51.170;4.884;2023-02-28T12:51:46;2.97;;;2.47;;
29202;SDS011;16245;51.170;4.884;2023-02-28T13:10:39;4.15;;;2.58;;
29202;SDS011;16245;51.170;4.884;2023-02-28T13:13:12;4.20;;;2.28;;
29202;SDS011;16245;51.170;4.884;2023-02-28T13:15:41;3.92;;;2.05;;
29202;SDS011;16245;51.170;4.884;2023-02-28T13:21:08;2.60;;;2.40;;
29202;SDS011;16245;51.170;4.884;2023-02-28T13:26:23;4.80;;;2.53;;
29202;SDS011;16245;51.170;4.884;2023-02-28T13:34:31;7.78;;;2.90;;
29202;SDS011;16245;51.170;4.884;2023-02-28T13:47:38;4.95;;;2.60;;
29202;SDS011;16245;51.170;4.884;2023-02-28T13:52:56;5.38;;;2.75;;
29202;SDS011;16245;51.170;4.884;2023-02-28T14:01:03;4.10;;;2.83;;
29202;SDS011;16245;51.170;4.884;2023-02-28T14:04:00;6.28;;;2.65;;
29202;SDS011;16245;51.170;4.884;2023-02-28T14:06:51;6.68;;;2.63;;
29202;SDS011;16245;51.170;4.884;2023-02-28T14:09:56;3.85;;;2.72;;
29202;SDS011;16245;51.170;4.884;2023-02-28T14:15:27;5.97;;;2.78;;
29202;SDS011;16245;51.170;4.884;2023-02-28T14:18:01;4.95;;;2.85;;
29202;SDS011;16245;51.170;4.884;2023-02-28T14:20:31;4.78;;;2.83;;
29202;SDS011;16245;51.170;4.884;2023-02-28T14:31:05;3.03;;;2.72;;
29202;SDS011;16245;51.170;4.884;2023-02-28T14:33:57;3.53;;;2.50;;
29202;SDS011;16245;51.170;4.884;2023-02-28T14:36:37;2.78;;;2.30;;
29202;SDS011;16245;51.170;4.884;2023-02-28T14:39:06;3.83;;;2.50;;
29202;SDS011;16245;51.170;4.884;2023-02-28T14:41:37;4.45;;;2.63;;
29202;SDS011;16245;51.170;4.884;2023-02-28T14:44:18;5.47;;;2.70;;
29202;SDS011;16245;51.170;4.884;2023-02-28T14:46:47;3.38;;;2.75;;
29202;SDS011;16245;51.170;4.884;2023-02-28T14:49:17;3.10;;;2.83;;
29202;SDS011;16245;51.170;4.884;2023-02-28T14:51:47;4.97;;;2.65;;
29202;SDS011;16245;51.170;4.884;2023-02-28T14:54:16;6.25;;;2.78;;
29202;SDS011;16245;51.170;4.884;2023-02-28T14:56:49;3.95;;;2.90;;
29202;SDS011;16245;51.170;4.884;2023-02-28T14:59:35;7.22;;;3.00;;
29202;SDS011;16245;51.170;4.884;2023-02-28T15:04:53;6.15;;;3.10;;
29202;SDS011;16245;51.170;4.884;2023-02-28T15:07:21;4.13;;;3.15;;
29202;SDS011;16245;51.170;4.884;2023-02-28T15:10:07;4.50;;;2.88;;
29202;SDS011;16245;51.170;4.884;2023-02-28T15:12:33;5.53;;;3.25;;
29202;SDS011;16245;51.170;4.884;2023-02-28T15:15:00;3.33;;;3.00;;
29202;SDS011;16245;51.170;4.884;2023-02-28T15:17:26;6.05;;;3.50;;
29202;SDS011;16245;51.170;4.884;2023-02-28T15:19:52;3.95;;;3.05;;
29202;SDS011;16245;51.170;4.884;2023-02-28T15:22:20;5.82;;;2.80;;
29202;SDS011;16245;51.170;4.884;2023-02-28T15:24:54;5.05;;;2.92;;
29202;SDS011;16245;51.170;4.884;2023-02-28T15:27:25;5.75;;;3.55;;
29202;SDS011;16245;51.170;4.884;2023-02-28T15:29:59;3.00;;;2.70;;
29202;SDS011;16245;51.170;4.884;2023-02-28T15:35:45;5.38;;;3.17;;
29202;SDS011;16245;51.170;4.884;2023-02-28T15:37:53;5.88;;;3.42;;
29202;SDS011;16245;51.170;4.884;2023-02-28T15:40:26;5.32;;;3.42;;
29202;SDS011;16245;51.170;4.884;2023-02-28T15:46:08;4.53;;;2.60;;
29202;SDS011;16245;51.170;4.884;2023-02-28T15:53:32;3.83;;;2.90;;
29202;SDS011;16245;51.170;4.884;2023-02-28T15:56:02;4.30;;;2.97;;
29202;SDS011;16245;51.170;4.884;2023-02-28T15:58:30;3.25;;;2.92;;
29202;SDS011;16245;51.170;4.884;2023-02-28T16:01:01;7.10;;;3.17;;
29202;SDS011;16245;51.170;4.884;2023-02-28T16:03:37;5.45;;;3.67;;
29202;SDS011;16245;51.170;4.884;2023-02-28T16:06:19;4.32;;;3.55;;
29202;SDS011;16245;51.170;4.884;2023-02-28T16:08:51;3.83;;;3.10;;
29202;SDS011;16245;51.170;4.884;2023-02-28T16:11:18;3.38;;;2.80;;
29202;SDS011;16245;51.170;4.884;2023-02-28T16:13:46;3.65;;;3.08;;
29202;SDS011;16245;51.170;4.884;2023-02-28T16:16:19;4.40;;;2.72;;
29202;SDS011;16245;51.170;4.884;2023-02-28T16:18:47;4.00;;;3.25;;
29202;SDS011;16245;51.170;4.884;2023-02-28T16:21:13;3.30;;;3.00;;
29202;SDS011;16245;51.170;4.884;2023-02-28T16:23:39;4.30;;;3.22;;
29202;SDS011;16245;51.170;4.884;2023-02-28T16:26:04;3.60;;;2.80;;
29202;SDS011;16245;51.170;4.884;2023-02-28T16:28:33;4.15;;;2.90;;
29202;SDS011;16245;51.170;4.884;2023-02-28T16:31:01;4.32;;;3.05;;
29202;SDS011;16245;51.170;4.884;2023-02-28T16:33:28;4.47;;;3.33;;
29202;SDS011;16245;51.170;4.884;2023-02-28T16:35:54;4.60;;;3.35;;
29202;SDS011;16245;51.170;4.884;2023-02-28T16:38:20;4.97;;;3.17;;
29202;SDS011;16245;51.170;4.884;2023-02-28T16:40:48;5.95;;;3.60;;
29202;SDS011;16245;51.170;4.884;2023-02-28T16:43:16;3.40;;;3.00;;
29202;SDS011;16245;51.170;4.884;2023-02-28T16:45:44;6.75;;;3.20;;
29202;SDS011;16245;51.170;4.884;2023-02-28T16:48:11;3.60;;;2.78;;
29202;SDS011;16245;51.170;4.884;2023-02-28T16:50:39;5.15;;;3.50;;
29202;SDS011;16245;51.170;4.884;2023-02-28T16:53:04;4.88;;;3.30;;
29202;SDS011;16245;51.170;4.884;2023-02-28T16:55:30;5.20;;;3.53;;
29202;SDS011;16245;51.170;4.884;2023-02-28T16:57:57;3.95;;;3.15;;
29202;SDS011;16245;51.170;4.884;2023-02-28T17:00:25;4.10;;;3.40;;
29202;SDS011;16245;51.170;4.884;2023-02-28T17:02:52;4.05;;;3.38;;
29202;SDS011;16245;51.170;4.884;2023-02-28T17:05:18;4.82;;;3.28;;
29202;SDS011;16245;51.170;4.884;2023-02-28T17:07:45;4.40;;;3.30;;
29202;SDS011;16245;51.170;4.884;2023-02-28T17:12:39;3.65;;;3.33;;
29202;SDS011;16245;51.170;4.884;2023-02-28T17:15:05;5.10;;;3.28;;
29202;SDS011;16245;51.170;4.884;2023-02-28T17:17:31;4.55;;;3.40;;
29202;SDS011;16245;51.170;4.884;2023-02-28T17:19:57;6.20;;;3.25;;
29202;SDS011;16245;51.170;4.884;2023-02-28T17:22:23;4.50;;;3.00;;
29202;SDS011;16245;51.170;4.884;2023-02-28T17:24:51;5.95;;;3.50;;
29202;SDS011;16245;51.170;4.884;2023-02-28T17:27:20;4.78;;;3.35;;
29202;SDS011;16245;51.170;4.884;2023-02-28T17:29:46;3.92;;;3.05;;
29202;SDS011;16245;51.170;4.884;2023-02-28T17:32:12;5.05;;;3.38;;
29202;SDS011;16245;51.170;4.884;2023-02-28T17:34:37;5.63;;;3.58;;
29202;SDS011;16245;51.170;4.884;2023-02-28T17:37:03;3.80;;;3.15;;
29202;SDS011;16245;51.170;4.884;2023-02-28T17:39:29;5.07;;;3.20;;
29202;SDS011;16245;51.170;4.884;2023-02-28T17:41:55;4.35;;;3.25;;